createdAt,value
2019-01-12T00:01:37.897Z,0.38
2019-01-12T00:04:08.324Z,0.43
2019-01-12T00:06:38.728Z,0.45
2019-01-12T00:09:09.728Z,0.46
2019-01-12T00:11:40.111Z,0.45
2019-01-12T00:14:10.530Z,0.51
2019-01-12T00:16:40.896Z,0.50
2019-01-12T00:19:11.476Z,0.57
2019-01-12T00:21:41.939Z,0.59
2019-01-12T00:24:12.620Z,0.58
2019-01-12T00:26:43.315Z,0.64
2019-01-12T00:29:14.023Z,0.69
2019-01-12T00:31:44.614Z,0.73
2019-01-12T00:34:15.329Z,0.82
2019-01-12T00:36:46.038Z,0.86
2019-01-12T00:39:16.622Z,0.95
2019-01-12T00:41:47.393Z,1.02
2019-01-12T00:44:18.183Z,1.12
2019-01-12T00:46:48.833Z,1.13
2019-01-12T00:49:19.653Z,1.14
2019-01-12T00:51:50.356Z,1.15
2019-01-12T00:54:20.777Z,1.13
2019-01-12T00:56:52.043Z,1.12
2019-01-12T00:59:22.596Z,1.14
2019-01-12T01:01:53.521Z,1.18
2019-01-12T01:04:25.054Z,1.15
2019-01-12T01:06:57.663Z,1.12
2019-01-12T01:09:28.687Z,1.15
2019-01-12T01:12:00.752Z,1.17
2019-01-12T01:14:32.828Z,1.26
2019-01-12T01:17:05.210Z,1.28
2019-01-12T01:19:36.772Z,1.24
2019-01-12T01:22:09.715Z,1.24
2019-01-12T01:24:45.845Z,1.26
2019-01-12T01:27:14.679Z,1.22
2019-01-12T01:29:45.258Z,1.28
2019-01-12T01:32:15.849Z,1.25
2019-01-12T01:34:46.614Z,1.21
2019-01-12T01:37:17.008Z,1.25
2019-01-12T01:39:47.774Z,1.31
2019-01-12T01:42:18.756Z,1.29
2019-01-12T01:44:49.710Z,1.30
2019-01-12T01:47:20.342Z,1.36
2019-01-12T01:49:50.977Z,1.31
2019-01-12T01:52:21.854Z,1.30
2019-01-12T01:54:53.208Z,1.36
2019-01-12T01:57:23.610Z,1.35
2019-01-12T01:59:54.337Z,1.33
2019-01-12T02:02:24.946Z,1.32
2019-01-12T02:04:55.878Z,1.38
2019-01-12T02:07:26.746Z,1.43
2019-01-12T02:09:57.604Z,1.41
2019-01-12T02:12:28.030Z,1.43
2019-01-12T02:14:58.672Z,1.44
2019-01-12T02:17:29.015Z,1.45
2019-01-12T02:19:59.806Z,1.53
2019-01-12T02:22:30.495Z,1.56
2019-01-12T02:25:01.131Z,1.56
2019-01-12T02:27:31.816Z,1.59
2019-01-12T02:30:02.232Z,1.58
2019-01-12T02:32:33.086Z,1.52
2019-01-12T02:35:03.729Z,1.58
2019-01-12T02:37:34.124Z,1.63
2019-01-12T02:40:05.973Z,1.67
2019-01-12T02:42:39.196Z,1.62
2019-01-12T02:45:12.245Z,1.61
2019-01-12T02:47:42.612Z,1.67
2019-01-12T02:50:14.398Z,1.73
2019-01-12T02:52:45.210Z,1.63
2019-01-12T02:55:18.145Z,1.64
2019-01-12T02:57:48.504Z,1.66
2019-01-12T03:00:20.347Z,1.64
2019-01-12T03:02:51.268Z,1.66
2019-01-12T03:05:25.210Z,1.65
2019-01-12T03:07:56.189Z,1.68
2019-01-12T03:10:29.270Z,1.63
2019-01-12T03:13:00.217Z,1.66
2019-01-12T03:15:30.860Z,1.66
2019-01-12T03:18:01.324Z,1.71
2019-01-12T03:20:32.006Z,1.63
2019-01-12T03:23:02.381Z,1.64
2019-01-12T03:25:33.225Z,1.67
2019-01-12T03:28:03.797Z,1.63
2019-01-12T03:30:36.424Z,1.62
2019-01-12T03:33:08.374Z,1.67
2019-01-12T03:35:41.314Z,1.64
2019-01-12T03:38:12.369Z,1.67
2019-01-12T03:40:45.416Z,1.67
2019-01-12T03:43:16.389Z,1.74
2019-01-12T03:45:48.461Z,1.68
2019-01-12T03:48:20.598Z,1.68
2019-01-12T03:50:51.499Z,1.69
2019-01-12T03:53:22.439Z,1.73
2019-01-12T03:55:54.477Z,1.70
2019-01-12T03:58:26.430Z,1.75
2019-01-12T04:00:57.480Z,1.81
2019-01-12T04:03:28.382Z,1.79
2019-01-12T04:05:59.203Z,1.82
2019-01-12T04:08:30.147Z,1.84
2019-01-12T04:11:00.495Z,1.88
2019-01-12T04:13:31.701Z,1.88
2019-01-12T04:16:02.459Z,1.93
2019-01-12T04:18:33.280Z,1.99
2019-01-12T04:21:03.646Z,1.98
2019-01-12T04:23:34.322Z,1.97
2019-01-12T04:26:05.022Z,1.93
2019-01-12T04:28:35.586Z,1.92
2019-01-12T04:31:06.106Z,1.98
2019-01-12T04:33:38.231Z,1.97
2019-01-12T04:36:10.695Z,1.94
2019-01-12T04:38:41.687Z,1.98
2019-01-12T04:41:14.667Z,1.98
2019-01-12T04:43:47.743Z,2.12
2019-01-12T04:46:18.547Z,2.07
2019-01-12T04:48:49.768Z,1.99
2019-01-12T04:51:21.192Z,2.02
2019-01-12T04:53:53.731Z,2.05
2019-01-12T04:56:25.565Z,2.07
2019-01-12T04:58:57.764Z,2.01
2019-01-12T05:01:28.805Z,2.01
2019-01-12T05:03:59.623Z,2.05
2019-01-12T05:06:30.315Z,2.04
2019-01-12T05:09:01.110Z,2.09
2019-01-12T05:11:31.923Z,2.08
2019-01-12T05:14:02.670Z,2.15
2019-01-12T05:16:33.578Z,2.16
2019-01-12T05:19:04.434Z,2.17
2019-01-12T05:21:34.852Z,2.19
2019-01-12T05:24:05.920Z,2.20
2019-01-12T05:26:36.553Z,2.13
2019-01-12T05:29:07.772Z,2.14
2019-01-12T05:31:38.340Z,2.16
2019-01-12T05:34:08.799Z,2.14
2019-01-12T05:36:39.492Z,2.18
2019-01-12T05:39:10.003Z,2.19
2019-01-12T05:41:40.769Z,2.20
2019-01-12T05:44:11.409Z,2.11
2019-01-12T05:46:41.941Z,2.14
2019-01-12T05:49:12.727Z,2.14
2019-01-12T05:51:43.541Z,2.16
2019-01-12T05:54:13.992Z,2.13
2019-01-12T05:56:44.915Z,2.18
2019-01-12T05:59:15.340Z,2.26
2019-01-12T06:01:46.435Z,2.26
2019-01-12T06:04:16.976Z,2.28
2019-01-12T06:06:47.712Z,2.31
2019-01-12T06:09:18.122Z,2.36
2019-01-12T06:11:49.007Z,2.39
2019-01-12T06:14:19.619Z,2.38
2019-01-12T06:16:50.669Z,2.38
2019-01-12T06:19:21.001Z,2.39
2019-01-12T06:21:51.854Z,2.41
2019-01-12T06:24:22.497Z,2.41
2019-01-12T06:26:53.531Z,2.36
2019-01-12T06:29:23.869Z,2.44
2019-01-12T06:31:54.282Z,2.39
2019-01-12T06:34:24.715Z,2.39
2019-01-12T06:36:55.287Z,2.41
2019-01-12T06:39:25.789Z,2.32
2019-01-12T06:41:56.231Z,2.36
2019-01-12T06:44:26.808Z,2.33
2019-01-12T06:46:57.205Z,2.39
2019-01-12T06:49:27.798Z,2.44
2019-01-12T06:51:58.330Z,2.45
2019-01-12T06:54:28.710Z,2.51
2019-01-12T06:56:59.232Z,2.49
2019-01-12T06:59:29.792Z,2.50
2019-01-12T07:02:00.329Z,2.48
2019-01-12T07:04:31.068Z,2.52
2019-01-12T07:07:01.728Z,2.56
2019-01-12T07:09:32.277Z,2.56
2019-01-12T07:12:03.038Z,2.57
2019-01-12T07:14:33.420Z,2.56
2019-01-12T07:17:04.356Z,2.58
2019-01-12T07:19:34.956Z,2.56
2019-01-12T07:22:05.433Z,2.63
2019-01-12T07:24:36.395Z,2.60
2019-01-12T07:27:07.211Z,2.60
2019-01-12T07:29:37.789Z,2.65
2019-01-12T07:32:08.413Z,2.63
2019-01-12T07:34:39.414Z,2.71
2019-01-12T07:37:10.318Z,2.67
2019-01-12T07:39:41.234Z,2.72
2019-01-12T07:42:11.938Z,2.75
2019-01-12T07:44:42.464Z,2.75
2019-01-12T07:47:12.909Z,2.80
2019-01-12T07:49:43.441Z,2.83
2019-01-12T07:52:13.959Z,2.82
2019-01-12T07:54:44.485Z,2.86
2019-01-12T07:57:15.040Z,2.86
2019-01-12T07:59:45.559Z,2.94
2019-01-12T08:02:16.171Z,2.95
2019-01-12T08:04:46.875Z,2.96
2019-01-12T08:07:19.024Z,3.03
2019-01-12T08:09:50.578Z,2.98
2019-01-12T08:12:21.518Z,3.02
2019-01-12T08:14:52.563Z,3.03
2019-01-12T08:17:25.533Z,3.01
2019-01-12T08:19:56.781Z,3.06
2019-01-12T08:22:27.714Z,3.09
2019-01-12T08:25:00.605Z,3.13
2019-01-12T08:27:31.656Z,3.13
2019-01-12T08:30:02.642Z,3.16
2019-01-12T08:32:33.727Z,3.17
2019-01-12T08:35:07.344Z,3.14
2019-01-12T08:37:37.722Z,3.16
2019-01-12T08:40:10.224Z,3.17
2019-01-12T08:42:42.015Z,3.23
2019-01-12T08:45:13.283Z,3.25
2019-01-12T08:47:44.241Z,3.21
2019-01-12T08:50:17.305Z,3.29
2019-01-12T08:52:48.801Z,3.32
2019-01-12T08:55:21.809Z,3.28
2019-01-12T08:57:52.712Z,3.29
2019-01-12T09:00:25.995Z,3.34
2019-01-12T09:02:56.817Z,3.37
2019-01-12T09:05:27.713Z,3.37
2019-01-12T09:08:00.946Z,3.33
2019-01-12T09:10:31.424Z,3.35
2019-01-12T09:13:01.834Z,3.38
2019-01-12T09:15:32.855Z,3.46
2019-01-12T09:18:05.630Z,3.50
2019-01-12T09:20:38.543Z,3.46
2019-01-12T09:23:11.016Z,3.54
2019-01-12T09:25:42.154Z,3.61
2019-01-12T09:28:13.186Z,3.54
2019-01-12T09:30:48.653Z,3.62
2019-01-12T09:33:18.913Z,3.63
2019-01-12T09:35:51.995Z,3.67
2019-01-12T09:38:24.246Z,3.68
2019-01-12T09:40:55.027Z,3.60
2019-01-12T09:43:27.988Z,3.66
2019-01-12T09:45:59.057Z,3.72
2019-01-12T09:48:29.957Z,3.71
2019-01-12T09:51:00.640Z,3.68
2019-01-12T09:53:30.996Z,3.69
2019-01-12T09:56:02.069Z,3.75
2019-01-12T09:58:32.908Z,3.73
2019-01-12T10:01:03.767Z,3.71
2019-01-12T10:03:35.834Z,3.79
2019-01-12T10:06:07.292Z,3.79
2019-01-12T10:08:37.968Z,3.86
2019-01-12T10:11:08.348Z,3.84
2019-01-12T10:13:39.041Z,3.84
2019-01-12T10:16:10.125Z,3.74
2019-01-12T10:18:41.888Z,3.80
2019-01-12T10:21:14.144Z,3.88
2019-01-12T10:24:18.410Z,3.88
2019-01-12T10:26:51.308Z,3.91
2019-01-12T10:29:22.253Z,3.91
2019-01-12T10:31:54.288Z,3.96
2019-01-12T10:34:29.624Z,3.96
2019-01-12T10:37:00.321Z,4.08
2019-01-12T10:39:33.301Z,4.08
2019-01-12T10:42:04.115Z,4.14
2019-01-12T10:44:35.259Z,4.09
2019-01-12T10:47:06.198Z,4.09
2019-01-12T10:49:39.270Z,4.10
2019-01-12T10:52:12.355Z,4.19
2019-01-12T10:54:42.820Z,4.11
2019-01-12T10:57:15.555Z,4.19
2019-01-12T10:59:48.329Z,4.17
2019-01-12T11:02:19.983Z,4.17
2019-01-12T11:04:50.573Z,4.16
2019-01-12T11:07:21.108Z,4.19
2019-01-12T11:09:51.913Z,4.20
2019-01-12T11:12:22.409Z,4.20
2019-01-12T11:14:52.872Z,4.43
2019-01-12T11:17:24.993Z,4.49
2019-01-12T11:19:57.363Z,4.49
2019-01-12T11:22:30.336Z,4.45
2019-01-12T11:25:01.700Z,4.43
2019-01-12T11:27:34.358Z,4.39
2019-01-12T11:30:07.382Z,4.39
2019-01-12T11:32:39.530Z,4.40
2019-01-12T11:35:12.705Z,4.41
2019-01-12T11:37:43.100Z,4.40
2019-01-12T11:40:18.990Z,4.40
2019-01-12T11:42:51.647Z,4.33
2019-01-12T11:45:24.534Z,4.09
2019-01-12T11:47:55.468Z,4.09
2019-01-12T11:50:28.586Z,4.19
2019-01-12T11:53:01.159Z,4.19
2019-01-12T11:55:33.660Z,4.29
2019-01-12T11:58:04.890Z,4.29
2019-01-12T12:00:35.295Z,4.35
2019-01-12T12:03:06.401Z,4.33
2019-01-12T12:05:36.820Z,4.28
2019-01-12T12:08:07.552Z,4.28
2019-01-12T12:10:38.433Z,4.40
2019-01-12T12:13:08.875Z,4.42
2019-01-12T12:15:39.462Z,4.41
2019-01-12T12:18:10.100Z,4.37
2019-01-12T12:20:40.626Z,4.37
2019-01-12T12:23:11.195Z,4.41
2019-01-12T12:25:41.639Z,4.46
2019-01-12T12:28:12.379Z,4.46
2019-01-12T12:30:42.847Z,4.50
2019-01-12T12:33:13.602Z,4.53
2019-01-12T12:35:44.339Z,4.53
2019-01-12T12:38:14.829Z,4.57
2019-01-12T12:40:45.558Z,4.57
2019-01-12T12:43:16.318Z,4.65
2019-01-12T12:45:47.058Z,4.65
2019-01-12T12:48:17.713Z,4.70
2019-01-12T12:50:48.484Z,4.70
2019-01-12T12:53:19.099Z,4.74
2019-01-12T12:55:49.857Z,4.90
2019-01-12T12:58:20.667Z,4.90
2019-01-12T13:00:51.567Z,4.94
2019-01-12T13:03:21.999Z,4.94
2019-01-12T13:05:53.110Z,4.78
2019-01-12T13:08:23.714Z,4.71
2019-01-12T13:10:54.648Z,4.69
2019-01-12T13:13:25.283Z,4.67
2019-01-12T13:15:56.313Z,4.67
2019-01-12T13:18:26.835Z,4.73
2019-01-12T13:20:58.847Z,4.74
2019-01-12T13:23:29.874Z,4.83
2019-01-12T13:26:01.024Z,4.82
2019-01-12T13:28:33.930Z,4.77
2019-01-12T13:31:05.586Z,4.77
2019-01-12T13:33:38.066Z,4.83
2019-01-12T13:36:09.973Z,4.84
2019-01-12T13:38:42.363Z,4.87
2019-01-12T13:41:13.074Z,4.85
2019-01-12T13:43:46.110Z,4.76
2019-01-12T13:46:18.154Z,4.79
2019-01-12T13:48:51.133Z,4.77
2019-01-12T13:51:24.103Z,4.65
2019-01-12T13:53:55.493Z,4.63
2019-01-12T13:56:28.124Z,4.63
2019-01-12T13:58:59.129Z,4.63
2019-01-12T14:01:32.129Z,4.54
2019-01-12T14:04:04.289Z,4.52
2019-01-12T14:06:38.004Z,4.52
2019-01-12T14:09:11.077Z,4.66
2019-01-12T14:11:42.397Z,4.66
2019-01-12T14:14:15.106Z,4.57
2019-01-12T14:16:46.212Z,4.58
2019-01-12T14:19:17.655Z,4.69
2019-01-12T14:21:49.064Z,4.72
2019-01-12T14:24:21.153Z,4.83
2019-01-12T14:26:52.071Z,4.84
2019-01-12T14:29:23.190Z,4.80
2019-01-12T14:31:56.278Z,4.66
2019-01-12T14:34:27.454Z,4.47
2019-01-12T14:37:00.289Z,4.47
2019-01-12T14:39:31.203Z,4.32
2019-01-12T14:42:01.647Z,4.34
2019-01-12T14:44:32.301Z,4.25
2019-01-12T14:47:03.027Z,4.25
2019-01-12T14:49:33.714Z,4.23
2019-01-12T14:52:04.275Z,4.25
2019-01-12T14:54:34.855Z,4.18
2019-01-12T14:57:05.409Z,4.15
2019-01-12T14:59:36.227Z,4.14
2019-01-12T15:02:06.978Z,4.19
2019-01-12T15:04:37.644Z,4.17
2019-01-12T15:07:08.291Z,4.19
2019-01-12T15:09:38.893Z,4.22
2019-01-12T15:12:09.390Z,4.22
2019-01-12T15:14:40.406Z,4.25
2019-01-12T15:17:11.218Z,4.23
2019-01-12T15:19:41.942Z,4.23
2019-01-12T15:22:13.081Z,4.17
2019-01-12T15:24:43.450Z,4.26
2019-01-12T15:27:14.366Z,4.28
2019-01-12T15:29:45.177Z,4.28
2019-01-12T15:32:19.111Z,4.25
2019-01-12T15:34:52.631Z,4.21
2019-01-12T15:37:23.760Z,4.25
2019-01-12T15:39:56.311Z,4.27
2019-01-12T15:42:30.693Z,4.26
2019-01-12T15:45:02.742Z,4.22
2019-01-12T15:47:34.679Z,4.16
2019-01-12T15:50:08.168Z,4.17
2019-01-12T15:52:42.648Z,4.17
2019-01-12T15:55:15.628Z,4.12
2019-01-12T15:57:48.667Z,4.19
2019-01-12T16:00:22.831Z,4.23
2019-01-12T16:02:53.724Z,4.17
2019-01-12T16:05:24.393Z,4.17
2019-01-12T16:07:54.867Z,4.17
2019-01-12T16:10:25.860Z,4.27
2019-01-12T16:12:56.569Z,4.28
2019-01-12T16:15:28.327Z,4.40
2019-01-12T16:18:00.827Z,4.40
2019-01-12T16:20:39.562Z,4.39
2019-01-12T16:23:15.281Z,4.39
2019-01-12T16:25:49.977Z,4.37
2019-01-12T16:28:23.423Z,4.43
2019-01-12T16:30:56.039Z,4.38
2019-01-12T16:33:26.968Z,4.39
2019-01-12T16:35:57.871Z,4.39
2019-01-12T16:38:29.089Z,4.25
2019-01-12T16:40:59.852Z,4.26
2019-01-12T16:43:32.792Z,4.31
2019-01-12T16:46:04.149Z,4.31
2019-01-12T16:48:36.922Z,4.30
2019-01-12T16:51:07.970Z,4.27
2019-01-12T16:53:38.486Z,4.29
2019-01-12T16:56:09.046Z,4.29
2019-01-12T16:58:39.528Z,4.32
2019-01-12T17:01:09.963Z,4.42
2019-01-12T17:03:40.624Z,4.47
2019-01-12T17:06:11.164Z,4.47
2019-01-12T17:08:41.937Z,4.49
2019-01-12T17:11:12.736Z,4.53
2019-01-12T17:13:43.427Z,4.44
2019-01-12T17:16:13.947Z,4.44
2019-01-12T17:18:44.842Z,4.45
2019-01-12T17:21:17.008Z,4.45
2019-01-12T17:23:49.066Z,4.51
2019-01-12T17:26:20.151Z,4.52
2019-01-12T17:28:51.179Z,4.55
2019-01-12T17:31:22.074Z,4.51
2019-01-12T17:33:55.151Z,4.51
2019-01-12T17:36:26.542Z,4.49
2019-01-12T17:38:57.267Z,4.49
2019-01-12T17:41:28.117Z,4.51
2019-01-12T17:44:01.598Z,4.55
2019-01-12T17:46:32.077Z,4.55
2019-01-12T17:49:05.172Z,4.54
2019-01-12T17:51:36.154Z,4.52
2019-01-12T17:54:08.235Z,4.65
2019-01-12T17:56:40.149Z,4.76
2019-01-12T17:59:11.172Z,4.83
2019-01-12T18:01:42.578Z,4.90
2019-01-12T18:04:15.223Z,4.82
2019-01-12T18:06:46.096Z,4.82
2019-01-12T18:09:19.269Z,4.85
2019-01-12T18:11:50.189Z,4.76
2019-01-12T18:14:21.316Z,4.76
2019-01-12T18:16:54.153Z,4.70
2019-01-12T18:19:26.147Z,4.71
2019-01-12T18:21:59.279Z,4.62
2019-01-12T18:24:30.223Z,4.67
2019-01-12T18:27:03.919Z,4.60
2019-01-12T18:29:34.332Z,4.60
2019-01-12T18:32:04.777Z,4.59
2019-01-12T18:34:35.494Z,4.63
2019-01-12T18:37:06.288Z,4.60
2019-01-12T18:39:37.162Z,4.58
2019-01-12T18:42:07.981Z,4.57
2019-01-12T18:44:38.426Z,4.57
2019-01-12T18:47:09.383Z,4.57
2019-01-12T18:49:40.511Z,4.65
2019-01-12T18:52:11.071Z,4.65
2019-01-12T18:54:41.572Z,4.65
2019-01-12T18:57:12.150Z,4.66
2019-01-12T18:59:42.630Z,4.68
2019-01-12T19:02:13.308Z,4.69
2019-01-12T19:04:44.003Z,4.62
2019-01-12T19:07:14.387Z,4.62
2019-01-12T19:09:45.067Z,4.75
2019-01-12T19:12:15.446Z,4.72
2019-01-12T19:14:46.368Z,4.72
2019-01-12T19:17:17.054Z,4.71
2019-01-12T19:19:47.601Z,4.70
2019-01-12T19:22:18.228Z,4.72
2019-01-12T19:24:48.880Z,4.73
2019-01-12T19:27:19.428Z,4.73
2019-01-12T19:29:50.213Z,4.74
2019-01-12T19:32:21.127Z,4.74
2019-01-12T19:34:51.663Z,4.83
2019-01-12T19:37:24.215Z,4.82
2019-01-12T19:39:57.368Z,4.82
2019-01-12T19:42:29.849Z,4.83
2019-01-12T19:45:00.760Z,4.89
2019-01-12T19:47:31.624Z,4.89
2019-01-12T19:50:03.658Z,4.89
2019-01-12T19:52:34.694Z,4.94
2019-01-12T19:55:09.036Z,4.92
2019-01-12T19:57:40.814Z,4.92
2019-01-12T20:00:14.801Z,4.97
2019-01-12T20:02:45.361Z,4.90
2019-01-12T20:05:15.791Z,4.90
2019-01-12T20:07:46.244Z,4.89
2019-01-12T20:10:17.555Z,4.87
2019-01-12T20:12:50.850Z,4.90
2019-01-12T20:15:26.540Z,5.02
2019-01-12T20:17:58.088Z,4.94
2019-01-12T20:20:30.788Z,5.03
2019-01-12T20:23:01.911Z,4.97
2019-01-12T20:25:35.123Z,4.97
2019-01-12T20:28:14.497Z,4.97
2019-01-12T20:31:29.870Z,4.99
2019-01-12T20:34:21.875Z,5.01
2019-01-12T20:37:43.539Z,5.01
2019-01-12T20:40:48.948Z,5.01
2019-01-12T20:44:06.929Z,5.01
2019-01-12T20:47:16.136Z,5.08
2019-01-12T20:50:06.643Z,5.11
2019-01-12T20:53:17.933Z,5.11
2019-01-12T20:56:20.104Z,5.10
2019-01-12T20:59:18.178Z,5.11
2019-01-12T21:02:33.345Z,5.09
2019-01-12T21:05:18.628Z,4.85
2019-01-12T21:08:20.843Z,4.85
2019-01-12T21:11:31.129Z,4.74
2019-01-12T21:14:36.292Z,4.74
2019-01-12T21:17:11.872Z,4.53
2019-01-12T21:19:48.162Z,4.43
2019-01-12T21:22:17.080Z,4.43
2019-01-12T21:24:47.514Z,4.32
2019-01-12T21:27:18.076Z,4.29
2019-01-12T21:29:49.053Z,4.29
2019-01-12T21:32:20.196Z,4.28
2019-01-12T21:34:52.114Z,4.28
2019-01-12T21:37:23.202Z,4.29
2019-01-12T21:39:54.172Z,4.29
2019-01-12T21:42:24.796Z,4.22
2019-01-12T21:44:55.208Z,4.22
2019-01-12T21:47:26.095Z,4.29
2019-01-12T21:49:56.852Z,4.29
2019-01-12T21:52:27.214Z,4.31
2019-01-12T21:54:58.169Z,4.40
2019-01-12T21:57:28.982Z,4.40
2019-01-12T21:59:59.560Z,4.40
2019-01-12T22:02:30.274Z,4.36
2019-01-12T22:05:01.138Z,4.36
2019-01-12T22:07:31.875Z,4.39
2019-01-12T22:10:02.324Z,4.39
2019-01-12T22:12:33.218Z,4.40
2019-01-12T22:15:04.690Z,4.44
2019-01-12T22:17:35.098Z,4.45
2019-01-12T22:20:06.450Z,4.44
2019-01-12T22:22:39.341Z,4.49
2019-01-12T22:25:12.505Z,4.53
2019-01-12T22:27:43.113Z,4.54
2019-01-12T22:30:16.781Z,4.54
2019-01-12T22:32:50.991Z,4.54
2019-01-12T22:35:21.433Z,4.53
2019-01-12T22:37:52.340Z,4.61
2019-01-12T22:40:25.281Z,4.61
2019-01-12T22:42:55.803Z,4.54
2019-01-12T22:45:26.327Z,4.49
2019-01-12T22:47:57.325Z,4.57
2019-01-12T22:50:28.060Z,4.57
2019-01-12T22:52:58.419Z,4.60
2019-01-12T22:55:29.489Z,4.62
2019-01-12T22:58:00.075Z,4.58
2019-01-12T23:00:48.831Z,4.57
2019-01-12T23:03:19.644Z,4.59
2019-01-12T23:05:50.498Z,4.61
2019-01-12T23:08:21.518Z,4.57
2019-01-12T23:10:56.163Z,4.57
2019-01-12T23:13:28.442Z,4.60
2019-01-12T23:15:59.585Z,4.61
2019-01-12T23:18:30.495Z,4.60
2019-01-12T23:21:03.505Z,4.60
2019-01-12T23:23:34.566Z,4.55
2019-01-12T23:26:07.573Z,4.56
2019-01-12T23:28:38.567Z,4.46
2019-01-12T23:31:09.243Z,4.57
2019-01-12T23:33:39.679Z,4.56
2019-01-12T23:36:10.553Z,4.60
2019-01-12T23:38:40.970Z,4.52
2019-01-12T23:41:11.651Z,4.46
2019-01-12T23:43:42.283Z,4.46
2019-01-12T23:46:12.684Z,4.47
2019-01-12T23:48:43.164Z,4.33
2019-01-12T23:51:13.844Z,4.33
2019-01-12T23:53:44.248Z,4.32
2019-01-12T23:56:15.564Z,4.22
2019-01-12T23:58:46.093Z,4.22
